Airfield :
LOGIN :

Register | Disclaimer

   EN    FR    IT 

 










Legend :    VFR   Marginal VFR   IFR   Intensive IFR   Very Intensive IFR
Visi :
Ceiling :
>= 8 km
>= 3000ft
5 to 8 km
1000 to 3000 ft
1500m to 5 km
500 to 1000 ft
800 to 1500m
200 to 500 ft
< 800m
< 200 ft
Symbols :   Thunderstorms  Fog  Heavy snow  Heavy precipitations  Wind > 20 kt
SIGMETs :     Misc.  Thunderstorms  Icing  Turbulence  Mountain Waves  Volcanic Ashes







- Airport Elevation : -11 ft
- IATA code : AMS


EHAM - Amsterdam Schiphol

CURRENT METAR :
  • 130525Z 08010KT 9999 FEW007 01/00 Q1022 NOSIG

EXPIRED METARs :
  • 130455Z 08011KT CAVOK 01/00 Q1022 NOSIG
  • 130425Z 08011KT 050V110 CAVOK 01/M00 Q1022 NOSIG
  • 130355Z 07009KT CAVOK 01/M01 Q1023 NOSIG
  • 130325Z 07008KT CAVOK 00/M01 Q1023 NOSIG
  • 130255Z 08009KT 050V110 CAVOK 01/M00 Q1023 NOSIG

TAF TAF EHAM
Valid from the 13 at 06:00 until the 14 at 12:00 UTC


130513Z 1306/1412 09012KT CAVOK
PROB30
TEMPO 1306/1309 BKN010
BECMG 1318/1321 07008KT BKN018
PROB30
TEMPO 1400/1410 7000 BKN007
No reported NOTAMs for that airfield.



MET'MAP, your aeronautical weather chart ! - Copyright ORBIFLY December 2007 - Disclaimer

ORBIFLY MET'MAP TEAM :

Programming & Development : Alexandra Zaïnal
Concept & Development : Baudouin d'Aumeries
Co-Development & Prog : Marc-Olivier Méhu
Technical & hardware support : Manuel Goepfert

Contact : metmap@orbifly.com




SOURCES & CREDITS :

   NOAA